Time;durP1;ratioP1;P1;durP2;ratioP2;P2;SDS_P1;SDS_P2;PMS_P1;PMS_P2;Temp;Humidity;BMP_temperature;BMP_pressure;BME280_temperature;BME280_humidity;BME280_pressure;Samples;Min_cycle;Max_cycle;Signal;HPM_P1;HPM_P2
2024/04/06 00:02:15;;;;;;;1.15;0.75;;;;;;;20.93;48.43;100663.70;2292757;76;50087;-82
2024/04/06 00:05:18;;;;;;;1.22;0.80;;;;;;;20.93;48.44;100656.97;2318573;75;50726;-82
2024/04/06 00:08:20;;;;;;;0.85;0.68;;;;;;;20.93;48.43;100658.31;2316946;76;50852;-84
2024/04/06 00:11:22;;;;;;;1.55;1.07;;;;;;;20.93;48.39;100661.00;2292671;76;50125;-83
2024/04/06 00:14:24;;;;;;;2.25;1.05;;;;;;;20.94;48.38;100664.03;2318558;76;51695;-83
2024/04/06 00:17:27;;;;;;;0.70;0.60;;;;;;;20.96;48.36;100660.63;2316709;76;50808;-83
2024/04/06 00:20:30;;;;;;;1.55;0.55;;;;;;;20.97;48.38;100661.45;2317051;76;50841;-82
2024/04/06 00:23:32;;;;;;;1.95;0.75;;;;;;;20.95;48.39;100658.13;2317114;76;50125;-83
2024/04/06 00:26:34;;;;;;;0.65;0.55;;;;;;;20.96;48.41;100659.29;2292657;76;49519;-83
2024/04/06 00:29:36;;;;;;;1.35;1.00;;;;;;;20.94;48.44;100658.65;2317146;76;50465;-83
2024/04/06 00:32:39;;;;;;;1.45;0.80;;;;;;;20.95;48.41;100662.98;2316902;76;51761;-83
2024/04/06 00:35:41;;;;;;;0.80;0.72;;;;;;;20.95;48.43;100659.48;2292821;76;50993;-83
2024/04/06 00:38:43;;;;;;;0.60;0.60;;;;;;;20.94;48.49;100660.00;2317061;76;51547;-82
2024/04/06 00:41:45;;;;;;;1.15;0.82;;;;;;;20.94;48.44;100655.96;2317146;76;50825;-83
2024/04/06 00:44:47;;;;;;;1.17;0.68;;;;;;;20.96;48.45;100665.16;2317086;76;50392;-83
2024/04/06 00:47:49;;;;;;;1.12;0.78;;;;;;;20.94;48.50;100665.38;2316567;76;50638;-83
2024/04/06 00:50:54;;;;;;;0.70;0.60;;;;;;;20.95;48.47;100666.20;2292590;76;50115;-83
2024/04/06 00:53:56;;;;;;;1.00;0.90;;;;;;;20.95;48.45;100667.02;2292287;76;51230;-83
2024/04/06 00:56:58;;;;;;;1.15;0.70;;;;;;;20.95;48.42;100671.06;2316521;76;50742;-83
2024/04/06 01:00:01;;;;;;;1.30;1.00;;;;;;;20.97;48.43;100674.91;2292542;76;50058;-83
2024/04/06 01:03:04;;;;;;;0.98;0.70;;;;;;;20.97;48.42;100674.91;2316954;76;52554;-82
2024/04/06 01:06:06;;;;;;;1.37;0.82;;;;;;;20.94;48.46;100676.13;2318795;75;52900;-83
2024/04/06 01:09:08;;;;;;;1.00;0.70;;;;;;;20.95;48.44;100673.75;2292784;76;51555;-83
2024/04/06 01:12:10;;;;;;;1.20;0.80;;;;;;;20.95;48.45;100674.27;2316889;76;51367;-84
2024/04/06 01:15:12;;;;;;;0.93;0.68;;;;;;;20.95;48.44;100673.75;2292154;76;49713;-83
2024/04/06 01:18:15;;;;;;;0.70;0.70;;;;;;;20.94;48.45;100676.13;2316702;76;51456;-84
2024/04/06 01:21:19;;;;;;;0.72;0.62;;;;;;;20.95;48.48;100685.03;2317026;76;50748;-82
2024/04/06 01:24:30;;;;;;;0.80;0.80;;;;;;;20.94;48.46;100696.31;2317777;75;21819;-83
2024/04/06 01:27:32;;;;;;;1.45;0.90;;;;;;;20.94;48.47;100692.80;2317124;76;51617;-83
2024/04/06 01:30:36;;;;;;;0.85;0.80;;;;;;;20.94;48.48;100696.83;2293089;76;50069;-84
2024/04/06 01:33:40;;;;;;;0.93;0.70;;;;;;;20.94;48.51;100701.69;2317175;76;52020;-83
2024/04/06 01:36:42;;;;;;;1.07;0.82;;;;;;;20.94;48.49;100705.72;2316739;76;50775;-83
2024/04/06 01:39:44;;;;;;;1.37;1.00;;;;;;;20.94;48.48;100709.76;2293097;76;51671;-83
2024/04/06 01:42:46;;;;;;;1.00;0.80;;;;;;;20.93;48.44;100712.11;2317069;76;50834;-82
2024/04/06 01:45:48;;;;;;;1.17;0.88;;;;;;;20.94;48.41;100716.48;2316772;76;50712;-83
2024/04/06 01:48:51;;;;;;;3.37;0.90;;;;;;;20.94;48.42;100727.24;2292614;76;51635;-83
2024/04/06 01:51:53;;;;;;;1.72;1.00;;;;;;;20.95;48.43;100732.09;2316817;76;50642;-83
2024/04/06 01:54:55;;;;;;;1.22;0.90;;;;;;;20.94;48.45;100725.07;2292822;76;50684;-83
2024/04/06 01:57:57;;;;;;;1.47;0.88;;;;;;;20.94;48.43;100734.48;2316785;76;51660;-82
2024/04/06 02:00:59;;;;;;;1.55;0.90;;;;;;;20.93;48.45;100728.77;2316865;76;50696;-82
2024/04/06 02:04:02;;;;;;;1.77;1.00;;;;;;;20.94;48.41;100728.59;2292798;76;52330;-83
2024/04/06 02:07:04;;;;;;;1.25;0.82;;;;;;;20.93;48.44;100726.91;2317063;76;50314;-83
2024/04/06 02:10:07;;;;;;;0.90;0.82;;;;;;;20.94;48.44;100727.77;2318861;76;50811;-83
2024/04/06 02:13:09;;;;;;;1.00;0.82;;;;;;;20.93;48.45;100733.62;2286298;76;50062;-83
2024/04/06 02:16:11;;;;;;;0.90;0.70;;;;;;;20.93;48.44;100736.32;2317076;76;51903;-82
2024/04/06 02:19:14;;;;;;;1.12;0.80;;;;;;;20.93;48.47;100738.19;2317268;76;52624;-83
2024/04/06 02:22:16;;;;;;;0.93;0.70;;;;;;;20.93;48.50;100737.66;2317389;76;50740;-83
2024/04/06 02:25:18;;;;;;;0.70;0.70;;;;;;;20.94;48.46;100741.21;2317144;76;50742;-83
2024/04/06 02:28:20;;;;;;;0.70;0.68;;;;;;;20.93;48.46;100730.94;2292965;76;51527;-83
2024/04/06 02:31:22;;;;;;;1.67;0.90;;;;;;;20.94;48.47;100742.55;2292980;76;50186;-83
2024/04/06 02:34:26;;;;;;;1.92;0.82;;;;;;;20.95;48.44;100732.92;2318934;76;50725;-83
2024/04/06 02:37:28;;;;;;;1.20;0.90;;;;;;;20.94;48.45;100736.66;2292916;76;50091;-83
2024/04/06 02:40:30;;;;;;;1.42;0.90;;;;;;;20.95;48.41;100732.92;2319215;76;51799;-83
2024/04/06 02:43:32;;;;;;;2.10;0.90;;;;;;;20.94;48.42;100732.62;2317393;76;50787;-83
2024/04/06 02:46:34;;;;;;;1.02;0.72;;;;;;;20.96;48.41;100729.72;2293101;76;50278;-83
2024/04/06 02:49:36;;;;;;;1.55;0.98;;;;;;;20.96;48.39;100731.06;2317365;76;50876;-83
2024/04/06 02:52:39;;;;;;;1.10;0.93;;;;;;;20.95;48.40;100736.96;2292990;76;50117;-83
2024/04/06 02:55:41;;;;;;;0.88;0.75;;;;;;;20.96;48.38;100737.30;2316968;76;51019;-83
2024/04/06 02:58:43;;;;;;;1.72;0.70;;;;;;;20.96;48.39;100733.75;2317206;76;51604;-84
2024/04/06 03:01:45;;;;;;;2.58;0.70;;;;;;;20.95;48.39;100741.00;2293061;76;50113;-83
2024/04/06 03:04:48;;;;;;;1.10;0.85;;;;;;;20.95;48.41;100740.17;2317297;76;51508;-83
2024/04/06 03:07:50;;;;;;;1.20;0.90;;;;;;;20.96;48.38;100731.92;2317189;76;51482;-83
2024/04/06 03:10:52;;;;;;;1.90;0.90;;;;;;;20.94;48.36;100739.34;2317384;76;50795;-83
2024/04/06 03:13:54;;;;;;;1.27;0.90;;;;;;;20.94;48.39;100742.03;2317561;76;50833;-82
2024/04/06 03:16:57;;;;;;;0.85;0.80;;;;;;;20.94;48.38;100735.83;2292759;76;50128;-82
2024/04/06 03:19:59;;;;;;;0.82;0.80;;;;;;;20.93;48.39;100741.70;2317571;76;50843;-83
2024/04/06 03:23:03;;;;;;;1.27;0.80;;;;;;;20.94;48.44;100756.00;2317499;76;50363;-83
2024/04/06 03:26:05;;;;;;;1.20;0.88;;;;;;;20.95;48.39;100754.97;2267829;76;51078;-83
2024/04/06 03:29:07;;;;;;;0.70;0.62;;;;;;;20.93;48.39;100752.45;2319401;76;50718;-83
2024/04/06 03:32:09;;;;;;;0.93;0.82;;;;;;;20.95;48.38;100755.79;2317918;76;50811;-84
2024/04/06 03:35:11;;;;;;;1.27;0.80;;;;;;;20.95;48.35;100750.41;2317611;76;51448;-81
2024/04/06 03:38:14;;;;;;;0.85;0.80;;;;;;;20.94;48.38;100756.00;2294084;76;51756;-85
2024/04/06 03:41:16;;;;;;;1.77;0.70;;;;;;;20.93;48.39;100748.42;2293750;76;51145;-83
2024/04/06 03:44:18;;;;;;;0.93;0.75;;;;;;;20.93;48.39;100747.59;2318180;76;51677;-82
2024/04/06 03:47:20;;;;;;;1.02;0.82;;;;;;;20.95;48.34;100747.72;2317956;76;50711;-83
2024/04/06 03:50:22;;;;;;;1.72;0.75;;;;;;;20.93;48.36;100749.77;2293874;76;50181;-82
2024/04/06 03:53:33;;;;;;;0.80;0.80;;;;;;;20.94;48.38;100760.86;2317841;76;50790;-82
2024/04/06 03:56:37;;;;;;;1.40;0.80;;;;;;;20.95;48.36;100763.03;2316033;75;50868;-83
2024/04/06 03:59:39;;;;;;;1.75;1.00;;;;;;;20.94;48.41;100763.55;2293008;76;49485;-83
2024/04/06 04:02:41;;;;;;;1.45;0.85;;;;;;;20.94;48.43;100755.48;2292727;76;50611;-82
2024/04/06 04:05:44;;;;;;;1.65;0.98;;;;;;;20.95;48.41;100760.34;2316973;76;50858;-83
2024/04/06 04:08:46;;;;;;;0.82;0.75;;;;;;;20.95;48.41;100754.97;2267779;76;49614;-83
2024/04/06 04:11:48;;;;;;;1.55;0.85;;;;;;;20.93;48.42;100755.15;2317151;76;50945;-83
2024/04/06 04:14:50;;;;;;;1.80;0.80;;;;;;;20.92;48.43;100748.12;2317004;76;50820;-83
2024/04/06 04:17:53;;;;;;;1.37;0.75;;;;;;;20.93;48.42;100752.45;2319476;76;51569;-83
2024/04/06 04:20:56;;;;;;;0.98;0.80;;;;;;;20.94;48.39;100758.70;2318193;76;51344;-83
2024/04/06 04:23:58;;;;;;;1.30;0.90;;;;;;;20.93;48.38;100760.53;2287048;76;51712;-83
2024/04/06 04:27:00;;;;;;;0.98;0.90;;;;;;;20.93;48.36;100756.49;2316940;76;50868;-83
2024/04/06 04:30:02;;;;;;;0.70;0.70;;;;;;;20.93;48.36;100768.59;2294042;76;50632;-83
2024/04/06 04:33:04;;;;;;;1.07;0.82;;;;;;;20.92;48.36;100761.56;2294090;76;49978;-82
2024/04/06 04:36:07;;;;;;;0.70;0.70;;;;;;;20.92;48.37;100763.44;2319651;75;50687;-84
2024/04/06 04:39:10;;;;;;;0.75;0.68;;;;;;;20.93;48.36;100775.32;2319874;76;51653;-82
2024/04/06 04:42:12;;;;;;;1.70;0.80;;;;;;;20.92;48.36;100769.64;2318386;76;50675;-83
2024/04/06 04:45:15;;;;;;;1.32;0.98;;;;;;;20.93;48.34;100769.94;2318373;76;50764;-83
2024/04/06 04:48:17;;;;;;;1.20;0.85;;;;;;;20.93;48.31;100764.56;2294251;76;51017;-83
2024/04/06 04:51:20;;;;;;;0.72;0.72;;;;;;;20.93;48.33;100770.46;2294725;76;50770;-83
2024/04/06 04:54:22;;;;;;;1.37;0.80;;;;;;;20.94;48.33;100766.25;2318787;76;51345;-83
2024/04/06 04:57:25;;;;;;;1.40;0.70;;;;;;;20.93;48.30;100771.28;2294489;76;50778;-83
2024/04/06 05:00:27;;;;;;;1.47;1.00;;;;;;;20.96;48.30;100768.72;2318155;76;51366;-83
2024/04/06 05:03:29;;;;;;;0.90;0.80;;;;;;;20.94;48.32;100770.28;2319386;76;50768;-83
2024/04/06 05:06:32;;;;;;;1.20;0.80;;;;;;;20.93;48.35;100775.84;2293443;76;50748;-83
2024/04/06 05:09:34;;;;;;;1.42;0.80;;;;;;;20.94;48.37;100781.56;2319611;76;50435;-83
2024/04/06 05:12:37;;;;;;;0.88;0.80;;;;;;;20.93;48.37;100780.70;2293445;76;51195;-83
2024/04/06 05:15:39;;;;;;;0.93;0.85;;;;;;;20.93;48.38;100791.46;2317872;76;51304;-83
2024/04/06 05:18:42;;;;;;;1.12;1.00;;;;;;;20.95;48.39;100791.28;2317489;76;50663;-84
2024/04/06 05:21:44;;;;;;;0.68;0.68;;;;;;;20.93;48.40;100794.16;2293443;76;51675;-82
2024/04/06 05:24:46;;;;;;;1.85;0.90;;;;;;;20.94;48.39;100800.39;2317563;76;51621;-82
2024/04/06 05:27:48;;;;;;;1.07;0.80;;;;;;;20.93;48.44;100797.36;2316911;76;50705;-83
2024/04/06 05:30:51;;;;;;;0.72;0.72;;;;;;;20.92;48.43;100801.91;2317081;76;50714;-83
2024/04/06 05:33:53;;;;;;;0.80;0.80;;;;;;;20.92;48.43;100801.91;2317092;76;50779;-83
2024/04/06 05:36:55;;;;;;;2.70;0.90;;;;;;;20.94;48.39;100805.77;2292724;76;51103;-82
2024/04/06 05:39:57;;;;;;;1.50;1.00;;;;;;;20.93;48.39;100804.91;2316956;76;49946;-82
2024/04/06 05:42:59;;;;;;;1.45;0.80;;;;;;;20.93;48.42;100810.29;2317042;76;50446;-82
2024/04/06 05:46:03;;;;;;;0.80;0.80;;;;;;;20.94;48.41;100829.45;2292626;76;51634;-83
2024/04/06 05:49:08;;;;;;;1.45;1.00;;;;;;;20.95;48.44;100824.38;2317465;76;50335;-82
2024/04/06 05:52:10;;;;;;;2.62;0.95;;;;;;;20.94;48.43;100830.80;2317175;76;51583;-82
2024/04/06 05:55:12;;;;;;;0.90;0.85;;;;;;;20.94;48.45;100842.91;2316603;76;50641;-83
2024/04/06 05:58:15;;;;;;;0.98;0.88;;;;;;;20.94;48.45;100840.22;2316820;76;51465;-82
2024/04/06 06:01:17;;;;;;;0.90;0.80;;;;;;;20.94;48.46;100838.88;2292171;76;49555;-83
2024/04/06 06:04:21;;;;;;;1.32;0.88;;;;;;;20.94;48.47;100832.14;2318476;76;50715;-82
2024/04/06 06:07:23;;;;;;;0.95;0.80;;;;;;;20.94;48.48;100830.80;2316641;76;24567;-82
2024/04/06 06:10:25;;;;;;;1.05;0.82;;;;;;;20.93;48.50;100827.77;2292079;76;51012;-82
2024/04/06 06:13:27;;;;;;;1.37;0.78;;;;;;;20.93;48.47;100829.64;2292617;76;51613;-82
2024/04/06 06:16:29;;;;;;;0.80;0.70;;;;;;;20.94;48.46;100838.05;2318571;75;51796;-83
2024/04/06 06:19:32;;;;;;;1.00;0.80;;;;;;;20.93;48.47;100844.44;2317099;76;50975;-83
2024/04/06 06:22:34;;;;;;;1.37;1.00;;;;;;;20.95;48.45;100839.70;2292815;76;50600;-83
2024/04/06 06:25:37;;;;;;;1.10;0.88;;;;;;;20.93;48.45;100843.91;2292391;76;51598;-83
2024/04/06 06:28:39;;;;;;;0.70;0.70;;;;;;;20.94;48.46;100848.80;2316724;76;51581;-84
2024/04/06 06:31:41;;;;;;;1.15;0.75;;;;;;;20.94;48.50;100845.59;2316967;76;50861;-83
2024/04/06 06:34:44;;;;;;;2.33;1.20;;;;;;;20.93;48.48;100849.30;2292723;76;49628;-84
2024/04/06 06:37:47;;;;;;;0.93;0.90;;;;;;;20.94;48.50;100844.25;2292900;76;50749;-84
2024/04/06 06:40:49;;;;;;;1.42;0.70;;;;;;;20.94;48.47;100848.29;2317220;76;50993;-83
2024/04/06 06:43:52;;;;;;;0.82;0.70;;;;;;;20.93;48.54;100856.02;2318857;76;51813;-82
2024/04/06 06:46:54;;;;;;;0.78;0.78;;;;;;;20.94;48.54;100849.63;2316927;76;50754;-83
2024/04/06 06:49:56;;;;;;;0.90;0.80;;;;;;;20.95;48.62;100853.97;2293009;76;50290;-84
2024/04/06 06:52:59;;;;;;;0.70;0.70;;;;;;;20.96;48.71;100858.83;2316610;76;50753;-82
2024/04/06 06:56:01;;;;;;;0.90;0.80;;;;;;;20.95;48.73;100860.70;2316624;76;51531;-83
2024/04/06 06:59:04;;;;;;;1.00;0.70;;;;;;;20.94;48.73;100853.66;2292504;76;50307;-83
2024/04/06 07:02:06;;;;;;;0.70;0.68;;;;;;;20.95;48.74;100862.05;2317093;76;50849;-83
2024/04/06 07:05:08;;;;;;;0.80;0.70;;;;;;;20.95;48.75;100862.56;2318674;75;51456;-83
2024/04/06 07:08:10;;;;;;;0.80;0.72;;;;;;;20.95;48.77;100853.97;2317247;76;50718;-84
2024/04/06 07:11:12;;;;;;;0.80;0.80;;;;;;;20.95;48.69;100862.56;2292744;76;50647;-82
2024/04/06 07:14:14;;;;;;;0.80;0.80;;;;;;;20.95;48.66;100863.39;2292188;76;49602;-83
2024/04/06 07:17:17;;;;;;;0.70;0.65;;;;;;;20.95;48.64;100860.70;2316474;76;50689;-82
2024/04/06 07:20:19;;;;;;;0.90;0.82;;;;;;;20.94;48.65;100850.98;2316597;76;50406;-84
2024/04/06 07:23:21;;;;;;;0.93;0.90;;;;;;;20.94;48.65;100859.05;2292098;76;50137;-83
2024/04/06 07:26:24;;;;;;;1.37;0.80;;;;;;;20.97;48.69;100851.93;2317574;75;50814;-84
2024/04/06 07:29:26;;;;;;;1.27;0.88;;;;;;;20.96;48.74;100851.63;2316380;76;51341;-85
2024/04/06 07:32:28;;;;;;;0.95;0.90;;;;;;;20.96;48.83;100861.03;2316284;76;50735;-82
2024/04/06 07:35:30;;;;;;;0.70;0.70;;;;;;;20.97;48.93;100860.00;2316243;76;50722;-85
2024/04/06 07:38:33;;;;;;;1.17;0.82;;;;;;;20.97;48.98;100862.69;2292243;76;50076;-83
2024/04/06 07:41:35;;;;;;;1.35;0.90;;;;;;;20.98;49.08;100862.17;2316125;76;51573;-83
2024/04/06 07:44:37;;;;;;;0.93;0.80;;;;;;;20.98;49.13;100869.72;2316604;76;50441;-83
2024/04/06 07:47:39;;;;;;;1.07;0.98;;;;;;;20.99;49.23;100874.09;2292044;76;49345;-83
2024/04/06 07:50:41;;;;;;;1.10;0.65;;;;;;;20.98;49.29;100873.75;2316620;76;50882;-83
2024/04/06 07:53:43;;;;;;;0.95;0.80;;;;;;;20.98;49.33;100874.27;2316308;76;50813;-83
2024/04/06 07:56:46;;;;;;;1.67;0.90;;;;;;;21.00;49.27;100877.61;2316058;76;50944;-83
2024/04/06 07:59:48;;;;;;;1.20;0.98;;;;;;;21.01;49.29;100878.74;2318170;76;51618;-83
2024/04/06 08:02:50;;;;;;;0.70;0.70;;;;;;;21.01;49.31;100868.50;2292569;76;50032;-83
2024/04/06 08:05:52;;;;;;;1.02;0.80;;;;;;;21.01;49.37;100867.98;2316483;76;50781;-82
2024/04/06 08:08:55;;;;;;;1.20;0.90;;;;;;;21.02;49.34;100864.28;2316526;76;50706;-82
2024/04/06 08:11:57;;;;;;;1.35;0.82;;;;;;;21.02;49.41;100866.97;2292361;76;50079;-82
2024/04/06 08:14:59;;;;;;;1.87;0.95;;;;;;;21.04;49.36;100866.77;2316474;76;50739;-82
2024/04/06 08:18:01;;;;;;;0.70;0.70;;;;;;;21.04;49.35;100882.42;2316884;76;50703;-83
2024/04/06 08:21:04;;;;;;;1.72;1.10;;;;;;;21.06;49.35;100885.72;2316761;76;51587;-83
2024/04/06 08:24:06;;;;;;;1.75;1.10;;;;;;;21.08;49.28;100894.95;2293000;76;51439;-83
2024/04/06 08:27:08;;;;;;;1.20;0.75;;;;;;;21.11;49.40;100891.88;2285597;76;49455;-83
2024/04/06 08:30:12;;;;;;;1.75;1.00;;;;;;;21.11;49.38;100890.53;2316786;76;50645;-83
2024/04/06 08:33:14;;;;;;;0.78;0.78;;;;;;;21.14;49.34;100896.86;2292986;76;51567;-85
2024/04/06 08:36:16;;;;;;;0.85;0.80;;;;;;;21.14;49.36;100904.11;2292470;76;50103;-84
2024/04/06 08:39:18;;;;;;;2.02;1.30;;;;;;;21.14;49.31;100902.77;2316670;76;50515;-82
2024/04/06 08:42:23;;;;;;;0.65;0.62;;;;;;;21.16;49.28;100902.89;2317181;76;50469;-83
2024/04/06 08:45:26;;;;;;;1.65;0.98;;;;;;;21.19;49.25;100903.02;2318914;75;50166;-83
2024/04/06 08:48:29;;;;;;;1.37;0.90;;;;;;;21.19;49.37;100903.84;2317000;76;50255;-83
2024/04/06 08:51:31;;;;;;;1.85;1.10;;;;;;;21.21;49.32;100910.39;2292733;76;51103;-83
2024/04/06 08:54:34;;;;;;;0.80;0.80;;;;;;;21.22;49.32;100910.69;2316624;76;50758;-83
2024/04/06 08:57:37;;;;;;;1.00;0.90;;;;;;;21.23;49.22;100905.13;2316753;76;50741;-83
2024/04/06 09:00:39;;;;;;;1.07;0.90;;;;;;;21.24;49.25;100901.91;2292784;76;51797;-85
2024/04/06 09:03:41;;;;;;;0.70;0.70;;;;;;;21.24;49.21;100875.83;2316871;76;51733;-84
2024/04/06 09:06:47;;;;;;;0.82;0.72;;;;;;;21.23;49.22;100884.94;2292539;76;50157;-83
2024/04/06 09:09:49;;;;;;;0.90;0.80;;;;;;;21.25;49.20;100890.97;2316944;76;51477;-83
2024/04/06 09:12:51;;;;;;;1.42;1.10;;;;;;;21.26;49.17;100910.64;2317149;76;51749;-82
2024/04/06 09:15:53;;;;;;;1.40;0.90;;;;;;;21.25;49.11;100913.84;2292423;76;49625;-83
2024/04/06 09:18:55;;;;;;;0.88;0.85;;;;;;;21.23;49.17;100911.86;2317221;76;50001;-83
2024/04/06 09:21:58;;;;;;;1.05;0.70;;;;;;;21.25;49.12;100909.81;2318848;76;50661;-84
2024/04/06 09:25:00;;;;;;;0.90;0.72;;;;;;;21.24;49.16;100907.30;2292688;76;49906;-84
2024/04/06 09:28:04;;;;;;;1.00;0.80;;;;;;;21.22;49.15;100908.00;2292237;76;50726;-83
2024/04/06 09:31:07;;;;;;;1.05;0.88;;;;;;;21.23;49.14;100911.03;2316757;76;50694;-83
2024/04/06 09:34:09;;;;;;;1.12;0.88;;;;;;;21.23;49.18;100905.13;2316759;76;50437;-83
2024/04/06 09:37:11;;;;;;;1.07;0.98;;;;;;;21.22;49.18;100896.75;2316668;76;50791;-83
2024/04/06 09:40:13;;;;;;;1.95;1.10;;;;;;;21.22;49.19;100883.78;2292412;76;50075;-83
2024/04/06 09:43:16;;;;;;;1.50;0.90;;;;;;;21.24;49.17;100904.09;2316685;76;50522;-82
2024/04/06 09:46:18;;;;;;;2.83;0.80;;;;;;;21.24;49.21;100887.11;2316113;76;51795;-82
2024/04/06 09:49:21;;;;;;;1.00;0.78;;;;;;;21.25;49.27;100888.28;2292330;76;49875;-83
2024/04/06 09:52:24;;;;;;;1.75;0.93;;;;;;;21.27;49.24;100886.72;2316785;76;50829;-83
2024/04/06 09:55:28;;;;;;;1.82;0.90;;;;;;;21.27;49.20;100892.10;2316516;76;49748;-83
2024/04/06 09:58:32;;;;;;;1.02;0.90;;;;;;;21.30;49.17;100889.05;2316606;76;50959;-83
2024/04/06 10:01:34;;;;;;;0.70;0.65;;;;;;;21.30;49.16;100886.35;2316937;76;50777;-83
2024/04/06 10:04:37;;;;;;;0.60;0.60;;;;;;;21.33;49.11;100898.59;2285914;76;50092;-83
2024/04/06 10:07:39;;;;;;;0.80;0.80;;;;;;;21.33;49.15;100898.07;2318352;76;50735;-83
2024/04/06 10:10:46;;;;;;;1.57;0.80;;;;;;;21.33;49.11;100907.49;2291362;76;50631;-83
2024/04/06 10:14:04;;;;;;;1.55;0.75;;;;;;;21.34;49.12;100901.06;2267888;76;52113;-82
2024/04/06 10:17:12;;;;;;;2.83;0.80;;;;;;;21.34;49.20;100898.89;2316728;76;50800;-83
2024/04/06 10:20:13;;;;;;;0.70;0.70;;;;;;;21.35;49.21;100897.86;2315783;76;21976;-82
2024/04/06 10:23:15;;;;;;;2.12;0.88;;;;;;;21.35;49.21;100900.06;2317023;76;51312;-83
2024/04/06 10:26:17;;;;;;;2.12;0.72;;;;;;;21.35;49.18;100901.41;2318165;76;51632;-82
2024/04/06 10:29:20;;;;;;;2.02;0.78;;;;;;;21.34;49.15;100891.64;2292159;76;50257;-84
2024/04/06 10:32:22;;;;;;;1.65;0.70;;;;;;;21.34;49.20;100888.95;2318413;76;50671;-81
2024/04/06 10:35:26;;;;;;;1.02;0.60;;;;;;;21.34;49.16;100888.95;2316439;76;51509;-83
2024/04/06 10:38:28;;;;;;;1.67;0.85;;;;;;;21.35;49.18;100885.75;2292669;76;51732;-83
2024/04/06 10:41:31;;;;;;;3.27;0.90;;;;;;;21.36;49.15;100883.39;2316880;76;50770;-84
2024/04/06 10:44:33;;;;;;;1.05;0.80;;;;;;;21.35;49.13;100890.64;2316897;76;50830;-84
2024/04/06 10:47:36;;;;;;;0.82;0.82;;;;;;;21.38;49.10;100895.66;2292339;76;50765;-84
2024/04/06 10:50:38;;;;;;;1.07;0.98;;;;;;;21.37;49.05;100888.56;2316456;76;50761;-83
2024/04/06 10:53:40;;;;;;;0.80;0.80;;;;;;;21.39;49.06;100885.20;2292308;76;49921;-83
2024/04/06 10:56:42;;;;;;;1.37;0.90;;;;;;;21.40;49.02;100884.67;2316086;76;51771;-83
2024/04/06 10:59:45;;;;;;;1.37;0.95;;;;;;;21.41;49.06;100872.38;2316280;76;50757;-83
2024/04/06 11:02:48;;;;;;;1.40;0.90;;;;;;;21.39;49.09;100865.01;2291980;76;49987;-82
2024/04/06 11:05:50;;;;;;;1.10;0.72;;;;;;;21.41;49.07;100866.99;2317809;75;50791;-83
2024/04/06 11:08:55;;;;;;;0.90;0.70;;;;;;;21.44;49.10;100864.42;2316087;76;51494;-84
2024/04/06 11:11:56;;;;;;;1.07;0.78;;;;;;;21.43;49.05;100859.56;2316539;76;22451;-82
2024/04/06 11:15:02;;;;;;;1.37;0.85;;;;;;;21.43;49.06;100858.22;2317940;76;49980;-82
2024/04/06 11:18:04;;;;;;;0.60;0.60;;;;;;;21.44;49.06;100865.25;2291982;76;50934;-83
2024/04/06 11:21:11;;;;;;;0.90;0.70;;;;;;;21.44;49.07;100863.91;2291958;76;50309;-82
2024/04/06 11:24:14;;;;;;;0.70;0.70;;;;;;;21.45;49.10;100864.23;2315404;76;52083;-83
2024/04/06 11:27:24;;;;;;;1.22;0.82;;;;;;;21.46;49.10;100871.27;2284356;76;50169;-84
2024/04/06 11:30:28;;;;;;;1.30;0.93;;;;;;;21.47;49.04;100870.23;2291344;76;51640;-83
2024/04/06 11:33:30;;;;;;;1.25;0.90;;;;;;;21.47;48.99;100863.50;2291807;76;51491;-83
2024/04/06 11:36:34;;;;;;;1.17;0.80;;;;;;;21.48;48.97;100858.98;2290974;76;51593;-83
2024/04/06 11:39:36;;;;;;;1.30;0.70;;;;;;;21.50;48.99;100851.51;2315787;76;50045;-83
2024/04/06 11:42:38;;;;;;;1.70;0.68;;;;;;;21.51;48.96;100855.88;2291868;76;49421;-84
2024/04/06 11:45:40;;;;;;;2.02;0.80;;;;;;;21.53;48.94;100864.08;2315874;76;50715;-83
2024/04/06 11:48:43;;;;;;;0.80;0.80;;;;;;;21.52;48.89;100852.97;2315665;76;50524;-83
2024/04/06 11:51:45;;;;;;;2.60;0.70;;;;;;;21.52;48.94;100859.70;2291604;76;50098;-83
2024/04/06 11:54:47;;;;;;;1.30;0.80;;;;;;;21.53;48.90;100864.08;2291653;76;50922;-82
2024/04/06 11:57:49;;;;;;;0.93;0.80;;;;;;;21.56;48.84;100860.68;2316370;76;50806;-83
2024/04/06 12:00:52;;;;;;;1.02;0.70;;;;;;;21.56;48.90;100862.85;2316865;76;51564;-84
2024/04/06 12:03:54;;;;;;;1.10;0.90;;;;;;;21.57;48.86;100861.81;2316779;76;50768;-84
2024/04/06 12:06:58;;;;;;;1.27;0.80;;;;;;;21.56;48.84;100859.33;2292117;76;50010;-83
2024/04/06 12:10:00;;;;;;;1.10;0.85;;;;;;;21.58;48.81;100871.57;2293361;76;50818;-83
2024/04/06 12:13:02;;;;;;;1.00;0.70;;;;;;;21.58;48.82;100884.17;2317482;76;50354;-84
2024/04/06 12:16:05;;;;;;;1.10;0.57;;;;;;;21.58;48.81;100881.48;2293292;76;50713;-82
2024/04/06 12:19:07;;;;;;;0.68;0.65;;;;;;;21.60;48.83;100883.47;2317618;76;52410;-84
2024/04/06 12:22:09;;;;;;;1.35;0.62;;;;;;;21.59;48.87;100876.44;2316923;76;50692;-83
2024/04/06 12:25:12;;;;;;;2.00;0.70;;;;;;;21.59;48.86;100879.12;2316758;76;51395;-83
2024/04/06 12:28:14;;;;;;;1.50;0.72;;;;;;;21.59;48.88;100881.82;2317164;76;50823;-82
2024/04/06 12:31:18;;;;;;;1.47;0.80;;;;;;;21.59;48.91;100875.91;2292533;76;50118;-83
2024/04/06 12:34:21;;;;;;;1.25;0.72;;;;;;;21.58;48.91;100868.88;2318530;76;50813;-83
2024/04/06 12:37:23;;;;;;;0.78;0.50;;;;;;;21.60;48.96;100865.97;2292797;76;50314;-83
2024/04/06 12:40:26;;;;;;;0.90;0.70;;;;;;;21.61;48.95;100873.03;2316944;76;50915;-83
2024/04/06 12:43:28;;;;;;;1.52;0.70;;;;;;;21.60;49.03;100863.28;2317435;76;51183;-85
2024/04/06 12:46:30;;;;;;;0.60;0.60;;;;;;;21.61;49.04;100863.61;2316769;76;50747;-83
2024/04/06 12:49:32;;;;;;;0.90;0.70;;;;;;;21.60;48.95;100861.41;2293232;76;51051;-83
2024/04/06 12:52:34;;;;;;;1.25;0.62;;;;;;;21.60;48.94;100870.84;2293330;76;50660;-83
2024/04/06 12:55:37;;;;;;;2.35;0.82;;;;;;;21.61;49.00;100873.86;2317553;76;50708;-83
2024/04/06 12:58:39;;;;;;;1.62;0.62;;;;;;;21.62;49.01;100869.30;2293890;76;50155;-83
2024/04/06 13:01:41;;;;;;;0.70;0.70;;;;;;;21.62;48.96;100858.02;2317790;76;51500;-83
2024/04/06 13:04:43;;;;;;;0.78;0.70;;;;;;;21.62;48.97;100853.14;2318556;76;50769;-83
2024/04/06 13:07:45;;;;;;;1.52;0.80;;;;;;;21.62;49.02;100857.19;2318331;76;50838;-83
2024/04/06 13:10:48;;;;;;;1.25;1.00;;;;;;;21.63;49.09;100858.84;2317797;76;50958;-83
2024/04/06 13:13:50;;;;;;;0.80;0.80;;;;;;;21.63;49.07;100857.48;2293552;76;50056;-83
2024/04/06 13:16:52;;;;;;;1.32;0.62;;;;;;;21.65;49.13;100860.82;2317761;76;51002;-84
2024/04/06 13:19:55;;;;;;;1.12;0.70;;;;;;;21.64;49.05;100862.69;2318351;76;50758;-83
2024/04/06 13:22:57;;;;;;;0.62;0.60;;;;;;;21.64;49.04;100859.17;2317190;76;50727;-83
2024/04/06 13:25:59;;;;;;;1.27;0.68;;;;;;;21.65;49.08;100848.70;2317109;76;51447;-83
2024/04/06 13:29:04;;;;;;;0.70;0.68;;;;;;;21.66;49.03;100850.39;2317239;76;50455;-83
2024/04/06 13:32:06;;;;;;;0.88;0.70;;;;;;;21.65;48.99;100832.55;2293538;76;22252;-83
2024/04/06 13:35:08;;;;;;;0.50;0.47;;;;;;;21.65;49.03;100827.98;2292600;76;50778;-84
2024/04/06 13:38:10;;;;;;;0.65;0.53;;;;;;;21.66;48.99;100834.23;2292859;76;51123;-83
2024/04/06 13:41:13;;;;;;;0.53;0.53;;;;;;;21.67;49.09;100821.89;2317397;76;51545;-84
2024/04/06 13:44:15;;;;;;;0.70;0.70;;;;;;;21.66;49.00;100814.03;2317176;76;50728;-84
2024/04/06 13:47:17;;;;;;;0.75;0.72;;;;;;;21.67;49.06;100815.16;2292664;76;49669;-84
2024/04/06 13:50:20;;;;;;;1.00;0.60;;;;;;;21.69;49.04;100824.40;2317321;76;50722;-84
2024/04/06 13:53:22;;;;;;;0.90;0.70;;;;;;;21.68;49.07;100830.31;2292978;76;50756;-84
2024/04/06 13:56:24;;;;;;;1.25;0.80;;;;;;;21.68;49.04;100830.31;2316811;76;50820;-83
2024/04/06 13:59:27;;;;;;;0.90;0.57;;;;;;;21.68;49.05;100831.66;2317048;76;51517;-83
2024/04/06 14:02:29;;;;;;;0.90;0.65;;;;;;;21.70;49.04;100826.05;2292757;76;51712;-83
2024/04/06 14:05:31;;;;;;;1.90;0.70;;;;;;;21.70;49.09;100812.58;2317306;76;50678;-83
2024/04/06 14:08:34;;;;;;;0.60;0.60;;;;;;;21.72;49.09;100815.91;2317356;76;51674;-83